Kakusyunmaru — JL6732 — position and weather

sailwx.info

Track history (hours):
 
Tides and Currents Weather Stations Pressure Air Temp Water Temp Dewpoint Dewpoint Depression Visibility Wind Speed Wind Dir Waves Ship Positions

Kakusyunmaru

Last reported at 2017-Dec-17 09:21 UTC. Time now 2017-Dec-17 10:09 UTC.
Position N 34°33' E 137°00'.

Length 103 m; draft 6.8 m.

Type: Tanker. MMSI: 431501785.

Date/timePositionNaut miles runAvg speedWind from/ knotsBaromVisibWave heightAir tempDewpointWater temp
2017-Dec-17 09:21N 34°33' E 137°00'513.3
2017-Dec-17 09:00N 34°36' E 136°56'612.9
2017-Dec-17 08:30N 34°40' E 136°50'713.2
2017-Dec-17 08:00N 34°46' E 136°46'612.8
2017-Dec-17 07:30N 34°52' E 136°43'611.5
2017-Dec-17 07:00N 34°57' E 136°40'1 2.5
2017-Dec-17 06:30N 34°57' E 136°38'0 0.0
2017-Dec-17 06:00N 34°57' E 136°38'0 0.0
2017-Dec-17 05:30N 34°57' E 136°38'0 0.0
2017-Dec-17 05:00N 34°57' E 136°38'0 0.0
2017-Dec-17 04:30N 34°57' E 136°38'0 0.0
2017-Dec-17 04:00N 34°57' E 136°38'0 0.0
2017-Dec-17 03:31N 34°57' E 136°38'0 0.0
2017-Dec-17 03:00N 34°57' E 136°38'0 0.0
2017-Dec-17 02:30N 34°57' E 136°38'0 0.0
2017-Dec-17 02:00N 34°57' E 136°38'0 0.0
2017-Dec-17 01:30N 34°57' E 136°38'0 0.0
2017-Dec-17 01:00N 34°57' E 136°38'0 0.0
2017-Dec-17 00:30N 34°57' E 136°38'0 0.0
2017-Dec-17 00:00N 34°57' E 136°38'0 0.0
2017-Dec-16 23:30N 34°57' E 136°38'0 0.0
2017-Dec-16 23:00N 34°57' E 136°38'0 0.0
2017-Dec-16 22:30N 34°57' E 136°38'0 0.0
2017-Dec-16 22:00N 34°57' E 136°38'2 3.0
2017-Dec-16 21:30N 34°57' E 136°40'1 2.1
2017-Dec-16 21:00N 34°57' E 136°41'0 0.0
2017-Dec-16 20:30N 34°57' E 136°41'0 0.0
2017-Dec-16 20:00N 34°57' E 136°41'0 0.0
2017-Dec-16 19:30N 34°57' E 136°41'0 0.0
2017-Dec-16 19:00N 34°57' E 136°41'0 0.0
2017-Dec-16 18:30N 34°57' E 136°41'0 0.0
2017-Dec-16 18:00N 34°57' E 136°41'0 0.0
2017-Dec-16 17:30N 34°57' E 136°41'0 0.0
2017-Dec-16 17:00N 34°57' E 136°41'0 0.0
2017-Dec-16 16:30N 34°57' E 136°41'0 0.0
2017-Dec-16 16:00N 34°57' E 136°41'0 0.3
2017-Dec-16 15:30N 34°57' E 136°41'611.8
2017-Dec-16 15:00N 34°51' E 136°44'812.0
2017-Dec-16 14:19N 34°44' E 136°49'38 9.5
2017-Dec-16 10:21N 34°06' E 136°48'513.0
2017-Dec-16 09:59N 34°03' E 136°43'23711.6
2017-Dec-15 13:35N 33°12' E 132°05'715.5
2017-Dec-15 13:08N 33°18' E 132°00'216.3
2017-Dec-15 13:00N 33°19' E 131°59'714.6
2017-Dec-15 12:30N 33°25' E 131°54'714.3
2017-Dec-15 12:00N 33°32' E 131°50'714.3
2017-Dec-15 11:30N 33°38' E 131°46'713.1
2017-Dec-15 11:00N 33°44' E 131°43'612.9
2017-Dec-15 10:30N 33°46' E 131°36'713.2
2017-Dec-15 10:00N 33°47' E 131°28'613.0
2017-Dec-15 09:30N 33°46' E 131°20'612.3
2017-Dec-15 09:00N 33°45' E 131°13'510.7
2017-Dec-15 08:30N 33°43' E 131°07'5 9.3
2017-Dec-15 08:01N 33°38' E 131°08'0 0.8
2017-Dec-15 07:30N 33°38' E 131°07'0 0.0
2017-Dec-15 07:00N 33°38' E 131°07'0 0.0
2017-Dec-15 06:30N 33°38' E 131°07'0 0.0
2017-Dec-15 06:00N 33°38' E 131°07'0 0.0
2017-Dec-15 05:30N 33°38' E 131°07'0 0.0
2017-Dec-15 05:00N 33°38' E 131°07'0 0.0
2017-Dec-15 04:30N 33°38' E 131°07'0 0.2
2017-Dec-15 04:00N 33°38' E 131°07'8 5.3
2017-Dec-15 02:30N 33°45' E 131°10'9 6.1
2017-Dec-15 01:00N 33°50' E 131°20'510.9
2017-Dec-15 00:30N 33°53' E 131°25'32110.2
2017-Dec-13 16:59N 34°31' E 137°51'511.2
2017-Dec-13 16:30N 34°31' E 137°57'610.8
2017-Dec-13 15:55N 34°31' E 138°05'710.3
2017-Dec-13 15:17N 34°31' E 138°13'1210.8
2017-Dec-13 14:10N 34°31' E 138°27'210.9
2017-Dec-13 13:58N 34°31' E 138°30'610.9
2017-Dec-13 13:27N 34°32' E 138°37'611.1
2017-Dec-13 12:53N 34°32' E 138°45'511.2
2017-Dec-13 12:27N 34°32' E 138°51'510.3
2017-Dec-13 11:58N 34°33' E 138°57'511.3
2017-Dec-13 11:30N 34°36' E 139°01'711.7
2017-Dec-13 10:56N 34°41' E 139°07'611.1
2017-Dec-13 10:24N 34°45' E 139°12'1010.9
2017-Dec-13 09:31N 34°51' E 139°21'111.2
2017-Dec-13 09:25N 34°52' E 139°22'811.8
2017-Dec-13 08:42N 34°57' E 139°30'311.8
2017-Dec-13 08:29N 34°59' E 139°32'612.4
2017-Dec-13 08:00N 35°03' E 139°38'612.8
2017-Dec-13 07:30N 35°08' E 139°43'713.3
2017-Dec-13 07:00N 35°14' E 139°46'713.3
2017-Dec-13 06:30N 35°20' E 139°43'612.2
2017-Dec-13 06:00N 35°26' E 139°45'713.5
2017-Dec-13 05:30N 35°30' E 139°51'712.9
2017-Dec-13 05:00N 35°32' E 139°59'4 7.1
2017-Dec-13 04:30N 35°32' E 140°03'0 0.0
2017-Dec-13 04:00N 35°32' E 140°03'0 0.0
2017-Dec-13 03:30N 35°32' E 140°03'0 0.0
2017-Dec-13 03:00N 35°32' E 140°03'0 0.0
2017-Dec-13 02:30N 35°32' E 140°03'0 0.0
2017-Dec-13 02:00N 35°32' E 140°03'0 0.0
2017-Dec-13 01:30N 35°32' E 140°03'0 0.0
2017-Dec-13 01:00N 35°32' E 140°03'0 0.0
2017-Dec-13 00:30N 35°32' E 140°03'0 0.0
2017-Dec-13 00:00N 35°32' E 140°03'0 0.0
2017-Dec-12 23:30N 35°32' E 140°03'1 1.6
2017-Dec-12 23:00N 35°33' E 140°03'1 2.3
2017-Dec-12 22:30N 35°33' E 140°02'0 0.1
2017-Dec-12 22:00N 35°33' E 140°02'0 0.1
2017-Dec-12 21:30N 35°33' E 140°02'0 0.0
2017-Dec-12 21:00N 35°33' E 140°02'0 0.0
2017-Dec-12 20:30N 35°33' E 140°02'0 0.1
2017-Dec-12 20:00N 35°33' E 140°02'0 0.0
2017-Dec-12 19:30N 35°33' E 140°02'0 0.0
2017-Dec-12 19:00N 35°33' E 140°02'0 0.1
2017-Dec-12 18:30N 35°33' E 140°02'0 0.0
2017-Dec-12 18:00N 35°33' E 140°02'0 0.0
2017-Dec-12 17:30N 35°33' E 140°02'0 0.0
2017-Dec-12 17:00N 35°33' E 140°02'0 0.0
2017-Dec-12 16:30N 35°33' E 140°02'0 0.0
2017-Dec-12 16:00N 35°33' E 140°02'0 0.0
2017-Dec-12 15:30N 35°33' E 140°02'3 5.1
2017-Dec-12 15:00N 35°32' E 139°59'612.6
2017-Dec-12 14:30N 35°29' E 139°52'713.1
2017-Dec-12 14:00N 35°24' E 139°46'612.5
2017-Dec-12 13:30N 35°18' E 139°45'612.8
2017-Dec-12 13:00N 35°12' E 139°47'713.4
2017-Dec-12 12:30N 35°06' E 139°45'713.1
2017-Dec-12 12:00N 35°01' E 139°39'714.3
2017-Dec-12 11:30N 34°57' E 139°32'714.8
2017-Dec-12 11:00N 34°52' E 139°25'815.4
2017-Dec-12 10:30N 34°48' E 139°18'814.9
2017-Dec-12 09:58N 34°42' E 139°11'714.6
2017-Dec-12 09:30N 34°38' E 139°04'714.5
2017-Dec-12 09:01N 34°33' E 138°58'714.3
2017-Dec-12 08:30N 34°32' E 138°49'714.6
2017-Dec-12 08:00N 34°32' E 138°40'714.4
2017-Dec-12 07:30N 34°31' E 138°31'714.1
2017-Dec-12 07:00N 34°31' E 138°23'714.0
2017-Dec-12 06:30N 34°30' E 138°14'814.7
2017-Dec-12 05:59N 34°31' E 138°05'714.6
2017-Dec-12 05:29N 34°31' E 137°56'714.4
2017-Dec-12 05:00N 34°31' E 137°48'5413.3
2017-Dec-12 00:54N 34°08' E 136°48'713.3
2017-Dec-12 00:24N 34°05' E 136°41'613.4
2017-Dec-11 23:57N 34°02' E 136°35'6711.4
2017-Dec-11 18:08N 33°31' E 135°24'513.7
2017-Dec-11 17:47N 33°33' E 135°19'1313.8
2017-Dec-11 16:51N 33°41' E 135°07'713.9
2017-Dec-11 16:22N 33°45' E 135°00'513.7
2017-Dec-11 16:00N 33°48' E 134°56'612.4
2017-Dec-11 15:29N 33°54' E 134°53'613.7
2017-Dec-11 15:00N 34°01' E 134°54'714.0
2017-Dec-11 14:30N 34°08' E 134°56'714.8
2017-Dec-11 14:00N 34°15' E 134°58'714.7
2017-Dec-11 13:31N 34°22' E 134°60'714.1
2017-Dec-11 13:00N 34°29' E 135°02'714.2
2017-Dec-11 12:31N 34°36' E 135°03'714.9
2017-Dec-11 12:00N 34°35' E 134°54'714.9
2017-Dec-11 11:30N 34°32' E 134°46'714.2
2017-Dec-11 11:00N 34°29' E 134°38'713.9
2017-Dec-11 10:30N 34°27' E 134°30'814.1
2017-Dec-11 09:56N 34°24' E 134°21'614.2
2017-Dec-11 09:30N 34°24' E 134°13'9 0.5
2017-Dec-10 15:34N 34°27' E 134°03'1813.1
2017-Dec-10 14:13N 34°22' E 134°24'312.7
2017-Dec-10 14:00N 34°21' E 134°27'612.4
2017-Dec-10 13:30N 34°18' E 134°33'912.2
2017-Dec-10 12:48N 34°12' E 134°41'412.7
2017-Dec-10 12:29N 34°09' E 134°44'612.3
2017-Dec-10 12:00N 34°05' E 134°49'612.4
2017-Dec-10 11:30N 34°01' E 134°55'611.9
2017-Dec-10 11:00N 33°55' E 134°58'108 9.4
2017-Dec-09 23:32N 34°33' E 137°00'111.9
2017-Dec-09 23:29N 34°34' E 136°60'611.8
2017-Dec-09 23:00N 34°37' E 136°54'612.1
2017-Dec-09 22:30N 34°41' E 136°49'612.5
2017-Dec-09 22:00N 34°47' E 136°46'612.6
2017-Dec-09 21:30N 34°52' E 136°42'5 9.9
2017-Dec-09 21:00N 34°57' E 136°40'1 2.2
2017-Dec-09 20:30N 34°57' E 136°38'0 0.0
2017-Dec-09 20:00N 34°57' E 136°38'0 0.0
2017-Dec-09 19:30N 34°57' E 136°38'0 0.0
2017-Dec-09 19:00N 34°57' E 136°38'0 0.0
2017-Dec-09 18:30N 34°57' E 136°38'0 0.0
2017-Dec-09 18:00N 34°57' E 136°38'0 0.0
2017-Dec-09 17:30N 34°57' E 136°38'0 0.0
2017-Dec-09 17:00N 34°57' E 136°38'0 0.0
2017-Dec-09 16:30N 34°57' E 136°38'0 0.0
2017-Dec-09 16:00N 34°57' E 136°38'0 0.0
2017-Dec-09 15:30N 34°57' E 136°38'0 0.0
2017-Dec-09 15:00N 34°57' E 136°38'0 0.0
2017-Dec-09 14:30N 34°57' E 136°38'0 0.0
2017-Dec-09 14:00N 34°57' E 136°38'0 0.0
2017-Dec-09 13:30N 34°57' E 136°38'0 0.0
2017-Dec-09 13:00N 34°57' E 136°38'0 0.0
2017-Dec-09 12:30N 34°57' E 136°38'0 0.0
2017-Dec-09 12:00N 34°57' E 136°38'0 0.0
2017-Dec-09 11:30N 34°57' E 136°38'0 0.0
2017-Dec-09 11:00N 34°57' E 136°38'0 0.0
2017-Dec-09 10:30N 34°57' E 136°38'0 0.0
2017-Dec-09 10:00N 34°57' E 136°38'0 0.0
2017-Dec-09 09:30N 34°57' E 136°38'0 0.2
2017-Dec-09 09:00N 34°57' E 136°39'2 4.2
2017-Dec-09 08:30N 34°57' E 136°41'0 0.0
2017-Dec-09 08:00N 34°57' E 136°41'0 0.1
2017-Dec-09 07:30N 34°57' E 136°41'0 0.1
2017-Dec-09 07:00N 34°57' E 136°41'0 0.1
2017-Dec-09 06:30N 34°57' E 136°41'1 2.5
2017-Dec-09 06:00N 34°56' E 136°42'612.8
2017-Dec-09 05:30N 34°50' E 136°45'712.6
2017-Dec-09 04:59N 34°44' E 136°49'4010.0
2017-Dec-09 01:03N 34°05' E 136°46'113.0
2017-Dec-09 00:57N 34°04' E 136°45'2612.5
2017-Dec-08 22:51N 33°47' E 136°20'5011.5
2017-Dec-08 18:34N 33°31' E 135°24'513.2
2017-Dec-08 18:13N 33°33' E 135°19'313.3
2017-Dec-08 18:00N 33°35' E 135°17'1513.8
2017-Dec-08 16:53N 33°47' E 135°05'513.6
2017-Dec-08 16:30N 33°51' E 135°02'713.7
2017-Dec-08 16:00N 33°58' E 134°60'713.6
2017-Dec-08 15:30N 34°05' E 134°59'713.2
2017-Dec-08 15:00N 34°11' E 134°59'713.9
2017-Dec-08 14:30N 34°18' E 134°59'612.7
2017-Dec-08 14:00N 34°24' E 135°02'713.6
2017-Dec-08 13:30N 34°28' E 135°09'713.4
2017-Dec-08 13:00N 34°32' E 135°15'612.8
2017-Dec-08 12:30N 34°36' E 135°22'3 6.9
2017-Dec-08 12:01N 34°35' E 135°26'0 0.3
2017-Dec-08 11:30N 34°35' E 135°26'0 0.0
2017-Dec-08 11:00N 34°35' E 135°26'0 0.0
2017-Dec-08 10:30N 34°35' E 135°26'0 0.0
2017-Dec-08 10:00N 34°35' E 135°26'0 0.0
2017-Dec-08 09:30N 34°35' E 135°26'0 0.0
2017-Dec-08 09:00N 34°35' E 135°26'0 0.0
2017-Dec-08 08:30N 34°35' E 135°26'0 0.0
2017-Dec-08 08:00N 34°35' E 135°26'0 0.0
2017-Dec-08 07:30N 34°35' E 135°26'0 0.0
2017-Dec-08 07:00N 34°35' E 135°26'0 0.0
2017-Dec-08 06:30N 34°35' E 135°26'0 0.0
2017-Dec-08 06:00N 34°35' E 135°26'0 0.0
2017-Dec-08 05:30N 34°35' E 135°26'0 0.0
2017-Dec-08 05:00N 34°35' E 135°26'0 0.0
2017-Dec-08 04:30N 34°35' E 135°26'0 0.0
2017-Dec-08 04:00N 34°35' E 135°26'0 0.0
2017-Dec-08 03:30N 34°35' E 135°26'0 0.6
2017-Dec-08 03:00N 34°35' E 135°25'2 4.1
2017-Dec-08 02:30N 34°36' E 135°24'1 2.6
2017-Dec-08 02:00N 34°36' E 135°23'0 0.0
2017-Dec-08 01:30N 34°36' E 135°23'0 0.1
2017-Dec-08 01:00N 34°36' E 135°22'0 0.0
2017-Dec-08 00:30N 34°36' E 135°22'0 0.0
2017-Dec-08 00:00N 34°36' E 135°22'0 0.0
2017-Dec-07 23:30N 34°36' E 135°22'0 0.0
2017-Dec-07 23:00N 34°36' E 135°22'0 0.0
2017-Dec-07 22:30N 34°36' E 135°22'0 0.0
2017-Dec-07 22:00N 34°36' E 135°22'0 0.1
2017-Dec-07 21:30N 34°36' E 135°22'0 0.1
2017-Dec-07 21:00N 34°36' E 135°22'0 0.1
2017-Dec-07 20:30N 34°36' E 135°22'0 0.0
2017-Dec-07 20:00N 34°36' E 135°22'0 0.0
2017-Dec-07 19:30N 34°36' E 135°22'0 0.1
2017-Dec-07 19:00N 34°36' E 135°22'0 0.0
2017-Dec-07 18:30N 34°36' E 135°22'0 0.1
2017-Dec-07 18:00N 34°36' E 135°22'0 0.0
2017-Dec-07 17:30N 34°36' E 135°22'0 0.0
2017-Dec-07 17:00N 34°36' E 135°22'0 0.0
2017-Dec-07 16:30N 34°36' E 135°22'0 0.0
2017-Dec-07 16:00N 34°36' E 135°22'0 0.0
2017-Dec-07 15:30N 34°36' E 135°22'0 0.0
2017-Dec-07 15:00N 34°36' E 135°22'0 0.0
2017-Dec-07 14:30N 34°36' E 135°22'0 0.1
2017-Dec-07 14:00N 34°36' E 135°22'0 0.1
2017-Dec-07 13:30N 34°36' E 135°22'0 0.1
2017-Dec-07 13:00N 34°36' E 135°22'0 0.0
2017-Dec-07 12:30N 34°36' E 135°22'0 0.0
2017-Dec-07 12:00N 34°36' E 135°22'0 0.0
2017-Dec-07 11:30N 34°36' E 135°22'0 0.0
2017-Dec-07 11:00N 34°36' E 135°22'0 0.0
2017-Dec-07 10:30N 34°36' E 135°22'0 0.0
2017-Dec-07 10:00N 34°36' E 135°22'0 0.0
2017-Dec-07 09:30N 34°36' E 135°22'  
Track history (hours):
 
Tides and Currents Weather Stations Pressure Air Temp Water Temp Dewpoint Dewpoint Depression Visibility Wind Speed Wind Dir Waves Ship Positions

Kakusyunmaru

Last reported at 2017-Dec-17 09:21 UTC. Time now 2017-Dec-17 10:09 UTC.
Position N 34°33' E 137°00'.

Length 103 m; draft 6.8 m.

Type: Tanker. MMSI: 431501785.

Date/timePositionNaut miles runAvg speedWind from/ knotsBaromVisibWave heightAir tempDewpointWater temp
2017-Dec-17 09:21N 34°33' E 137°00'513.3
2017-Dec-17 09:00N 34°36' E 136°56'612.9
2017-Dec-17 08:30N 34°40' E 136°50'713.2
2017-Dec-17 08:00N 34°46' E 136°46'612.8
2017-Dec-17 07:30N 34°52' E 136°43'611.5
2017-Dec-17 07:00N 34°57' E 136°40'1 2.5
2017-Dec-17 06:30N 34°57' E 136°38'0 0.0
2017-Dec-17 06:00N 34°57' E 136°38'0 0.0
2017-Dec-17 05:30N 34°57' E 136°38'0 0.0
2017-Dec-17 05:00N 34°57' E 136°38'0 0.0
2017-Dec-17 04:30N 34°57' E 136°38'0 0.0
2017-Dec-17 04:00N 34°57' E 136°38'0 0.0
2017-Dec-17 03:31N 34°57' E 136°38'0 0.0
2017-Dec-17 03:00N 34°57' E 136°38'0 0.0
2017-Dec-17 02:30N 34°57' E 136°38'0 0.0
2017-Dec-17 02:00N 34°57' E 136°38'0 0.0
2017-Dec-17 01:30N 34°57' E 136°38'0 0.0
2017-Dec-17 01:00N 34°57' E 136°38'0 0.0
2017-Dec-17 00:30N 34°57' E 136°38'0 0.0
2017-Dec-17 00:00N 34°57' E 136°38'0 0.0
2017-Dec-16 23:30N 34°57' E 136°38'0 0.0
2017-Dec-16 23:00N 34°57' E 136°38'0 0.0
2017-Dec-16 22:30N 34°57' E 136°38'0 0.0
2017-Dec-16 22:00N 34°57' E 136°38'2 3.0
2017-Dec-16 21:30N 34°57' E 136°40'1 2.1
2017-Dec-16 21:00N 34°57' E 136°41'0 0.0
2017-Dec-16 20:30N 34°57' E 136°41'0 0.0
2017-Dec-16 20:00N 34°57' E 136°41'0 0.0
2017-Dec-16 19:30N 34°57' E 136°41'0 0.0
2017-Dec-16 19:00N 34°57' E 136°41'0 0.0
2017-Dec-16 18:30N 34°57' E 136°41'0 0.0
2017-Dec-16 18:00N 34°57' E 136°41'0 0.0
2017-Dec-16 17:30N 34°57' E 136°41'0 0.0
2017-Dec-16 17:00N 34°57' E 136°41'0 0.0
2017-Dec-16 16:30N 34°57' E 136°41'0 0.0
2017-Dec-16 16:00N 34°57' E 136°41'0 0.3
2017-Dec-16 15:30N 34°57' E 136°41'611.8
2017-Dec-16 15:00N 34°51' E 136°44'812.0
2017-Dec-16 14:19N 34°44' E 136°49'38 9.5
2017-Dec-16 10:21N 34°06' E 136°48'513.0
2017-Dec-16 09:59N 34°03' E 136°43'23711.6
2017-Dec-15 13:35N 33°12' E 132°05'715.5
2017-Dec-15 13:08N 33°18' E 132°00'216.3
2017-Dec-15 13:00N 33°19' E 131°59'714.6
2017-Dec-15 12:30N 33°25' E 131°54'714.3
2017-Dec-15 12:00N 33°32' E 131°50'714.3
2017-Dec-15 11:30N 33°38' E 131°46'713.1
2017-Dec-15 11:00N 33°44' E 131°43'612.9
2017-Dec-15 10:30N 33°46' E 131°36'713.2
2017-Dec-15 10:00N 33°47' E 131°28'613.0
2017-Dec-15 09:30N 33°46' E 131°20'612.3
2017-Dec-15 09:00N 33°45' E 131°13'510.7
2017-Dec-15 08:30N 33°43' E 131°07'5 9.3
2017-Dec-15 08:01N 33°38' E 131°08'0 0.8
2017-Dec-15 07:30N 33°38' E 131°07'0 0.0
2017-Dec-15 07:00N 33°38' E 131°07'0 0.0
2017-Dec-15 06:30N 33°38' E 131°07'0 0.0
2017-Dec-15 06:00N 33°38' E 131°07'0 0.0
2017-Dec-15 05:30N 33°38' E 131°07'0 0.0
2017-Dec-15 05:00N 33°38' E 131°07'0 0.0
2017-Dec-15 04:30N 33°38' E 131°07'0 0.2
2017-Dec-15 04:00N 33°38' E 131°07'8 5.3
2017-Dec-15 02:30N 33°45' E 131°10'9 6.1
2017-Dec-15 01:00N 33°50' E 131°20'510.9
2017-Dec-15 00:30N 33°53' E 131°25'32110.2
2017-Dec-13 16:59N 34°31' E 137°51'511.2
2017-Dec-13 16:30N 34°31' E 137°57'610.8
2017-Dec-13 15:55N 34°31' E 138°05'710.3
2017-Dec-13 15:17N 34°31' E 138°13'1210.8
2017-Dec-13 14:10N 34°31' E 138°27'210.9
2017-Dec-13 13:58N 34°31' E 138°30'610.9
2017-Dec-13 13:27N 34°32' E 138°37'611.1
2017-Dec-13 12:53N 34°32' E 138°45'511.2
2017-Dec-13 12:27N 34°32' E 138°51'510.3
2017-Dec-13 11:58N 34°33' E 138°57'511.3
2017-Dec-13 11:30N 34°36' E 139°01'711.7
2017-Dec-13 10:56N 34°41' E 139°07'611.1
2017-Dec-13 10:24N 34°45' E 139°12'1010.9
2017-Dec-13 09:31N 34°51' E 139°21'111.2
2017-Dec-13 09:25N 34°52' E 139°22'811.8
2017-Dec-13 08:42N 34°57' E 139°30'311.8
2017-Dec-13 08:29N 34°59' E 139°32'612.4
2017-Dec-13 08:00N 35°03' E 139°38'612.8
2017-Dec-13 07:30N 35°08' E 139°43'713.3
2017-Dec-13 07:00N 35°14' E 139°46'713.3
2017-Dec-13 06:30N 35°20' E 139°43'612.2
2017-Dec-13 06:00N 35°26' E 139°45'713.5
2017-Dec-13 05:30N 35°30' E 139°51'712.9
2017-Dec-13 05:00N 35°32' E 139°59'4 7.1
2017-Dec-13 04:30N 35°32' E 140°03'0 0.0
2017-Dec-13 04:00N 35°32' E 140°03'0 0.0
2017-Dec-13 03:30N 35°32' E 140°03'0 0.0
2017-Dec-13 03:00N 35°32' E 140°03'0 0.0
2017-Dec-13 02:30N 35°32' E 140°03'0 0.0
2017-Dec-13 02:00N 35°32' E 140°03'0 0.0
2017-Dec-13 01:30N 35°32' E 140°03'0 0.0
2017-Dec-13 01:00N 35°32' E 140°03'0 0.0
2017-Dec-13 00:30N 35°32' E 140°03'0 0.0
2017-Dec-13 00:00N 35°32' E 140°03'0 0.0
2017-Dec-12 23:30N 35°32' E 140°03'1 1.6
2017-Dec-12 23:00N 35°33' E 140°03'1 2.3
2017-Dec-12 22:30N 35°33' E 140°02'0 0.1
2017-Dec-12 22:00N 35°33' E 140°02'0 0.1
2017-Dec-12 21:30N 35°33' E 140°02'0 0.0
2017-Dec-12 21:00N 35°33' E 140°02'0 0.0
2017-Dec-12 20:30N 35°33' E 140°02'0 0.1
2017-Dec-12 20:00N 35°33' E 140°02'0 0.0
2017-Dec-12 19:30N 35°33' E 140°02'0 0.0
2017-Dec-12 19:00N 35°33' E 140°02'0 0.1
2017-Dec-12 18:30N 35°33' E 140°02'0 0.0
2017-Dec-12 18:00N 35°33' E 140°02'0 0.0
2017-Dec-12 17:30N 35°33' E 140°02'0 0.0
2017-Dec-12 17:00N 35°33' E 140°02'0 0.0
2017-Dec-12 16:30N 35°33' E 140°02'0 0.0
2017-Dec-12 16:00N 35°33' E 140°02'0 0.0
2017-Dec-12 15:30N 35°33' E 140°02'3 5.1
2017-Dec-12 15:00N 35°32' E 139°59'612.6
2017-Dec-12 14:30N 35°29' E 139°52'713.1
2017-Dec-12 14:00N 35°24' E 139°46'612.5
2017-Dec-12 13:30N 35°18' E 139°45'612.8
2017-Dec-12 13:00N 35°12' E 139°47'713.4
2017-Dec-12 12:30N 35°06' E 139°45'713.1
2017-Dec-12 12:00N 35°01' E 139°39'714.3
2017-Dec-12 11:30N 34°57' E 139°32'714.8
2017-Dec-12 11:00N 34°52' E 139°25'815.4
2017-Dec-12 10:30N 34°48' E 139°18'814.9
2017-Dec-12 09:58N 34°42' E 139°11'714.6
2017-Dec-12 09:30N 34°38' E 139°04'714.5
2017-Dec-12 09:01N 34°33' E 138°58'714.3
2017-Dec-12 08:30N 34°32' E 138°49'714.6
2017-Dec-12 08:00N 34°32' E 138°40'714.4
2017-Dec-12 07:30N 34°31' E 138°31'714.1
2017-Dec-12 07:00N 34°31' E 138°23'714.0
2017-Dec-12 06:30N 34°30' E 138°14'814.7
2017-Dec-12 05:59N 34°31' E 138°05'714.6
2017-Dec-12 05:29N 34°31' E 137°56'714.4
2017-Dec-12 05:00N 34°31' E 137°48'5413.3
2017-Dec-12 00:54N 34°08' E 136°48'713.3
2017-Dec-12 00:24N 34°05' E 136°41'613.4
2017-Dec-11 23:57N 34°02' E 136°35'6711.4
2017-Dec-11 18:08N 33°31' E 135°24'513.7
2017-Dec-11 17:47N 33°33' E 135°19'1313.8
2017-Dec-11 16:51N 33°41' E 135°07'713.9
2017-Dec-11 16:22N 33°45' E 135°00'513.7
2017-Dec-11 16:00N 33°48' E 134°56'612.4
2017-Dec-11 15:29N 33°54' E 134°53'613.7
2017-Dec-11 15:00N 34°01' E 134°54'714.0
2017-Dec-11 14:30N 34°08' E 134°56'714.8
2017-Dec-11 14:00N 34°15' E 134°58'714.7
2017-Dec-11 13:31N 34°22' E 134°60'714.1
2017-Dec-11 13:00N 34°29' E 135°02'714.2
2017-Dec-11 12:31N 34°36' E 135°03'714.9
2017-Dec-11 12:00N 34°35' E 134°54'714.9
2017-Dec-11 11:30N 34°32' E 134°46'714.2
2017-Dec-11 11:00N 34°29' E 134°38'713.9
2017-Dec-11 10:30N 34°27' E 134°30'814.1
2017-Dec-11 09:56N 34°24' E 134°21'614.2
2017-Dec-11 09:30N 34°24' E 134°13'9 0.5
2017-Dec-10 15:34N 34°27' E 134°03'1813.1
2017-Dec-10 14:13N 34°22' E 134°24'312.7
2017-Dec-10 14:00N 34°21' E 134°27'612.4
2017-Dec-10 13:30N 34°18' E 134°33'912.2
2017-Dec-10 12:48N 34°12' E 134°41'412.7
2017-Dec-10 12:29N 34°09' E 134°44'612.3
2017-Dec-10 12:00N 34°05' E 134°49'612.4
2017-Dec-10 11:30N 34°01' E 134°55'611.9
2017-Dec-10 11:00N 33°55' E 134°58'108 9.4
2017-Dec-09 23:32N 34°33' E 137°00'111.9
2017-Dec-09 23:29N 34°34' E 136°60'611.8
2017-Dec-09 23:00N 34°37' E 136°54'612.1
2017-Dec-09 22:30N 34°41' E 136°49'612.5
2017-Dec-09 22:00N 34°47' E 136°46'612.6
2017-Dec-09 21:30N 34°52' E 136°42'5 9.9
2017-Dec-09 21:00N 34°57' E 136°40'1 2.2
2017-Dec-09 20:30N 34°57' E 136°38'0 0.0
2017-Dec-09 20:00N 34°57' E 136°38'0 0.0
2017-Dec-09 19:30N 34°57' E 136°38'0 0.0
2017-Dec-09 19:00N 34°57' E 136°38'0 0.0
2017-Dec-09 18:30N 34°57' E 136°38'0 0.0
2017-Dec-09 18:00N 34°57' E 136°38'0 0.0
2017-Dec-09 17:30N 34°57' E 136°38'0 0.0
2017-Dec-09 17:00N 34°57' E 136°38'0 0.0
2017-Dec-09 16:30N 34°57' E 136°38'0 0.0
2017-Dec-09 16:00N 34°57' E 136°38'0 0.0
2017-Dec-09 15:30N 34°57' E 136°38'0 0.0
2017-Dec-09 15:00N 34°57' E 136°38'0 0.0
2017-Dec-09 14:30N 34°57' E 136°38'0 0.0
2017-Dec-09 14:00N 34°57' E 136°38'0 0.0
2017-Dec-09 13:30N 34°57' E 136°38'0 0.0
2017-Dec-09 13:00N 34°57' E 136°38'0 0.0
2017-Dec-09 12:30N 34°57' E 136°38'0 0.0
2017-Dec-09 12:00N 34°57' E 136°38'0 0.0
2017-Dec-09 11:30N 34°57' E 136°38'0 0.0
2017-Dec-09 11:00N 34°57' E 136°38'0 0.0
2017-Dec-09 10:30N 34°57' E 136°38'0 0.0
2017-Dec-09 10:00N 34°57' E 136°38'0 0.0
2017-Dec-09 09:30N 34°57' E 136°38'0 0.2
2017-Dec-09 09:00N 34°57' E 136°39'2 4.2
2017-Dec-09 08:30N 34°57' E 136°41'0 0.0
2017-Dec-09 08:00N 34°57' E 136°41'0 0.1
2017-Dec-09 07:30N 34°57' E 136°41'0 0.1
2017-Dec-09 07:00N 34°57' E 136°41'0 0.1
2017-Dec-09 06:30N 34°57' E 136°41'1 2.5
2017-Dec-09 06:00N 34°56' E 136°42'612.8
2017-Dec-09 05:30N 34°50' E 136°45'712.6
2017-Dec-09 04:59N 34°44' E 136°49'4010.0
2017-Dec-09 01:03N 34°05' E 136°46'113.0
2017-Dec-09 00:57N 34°04' E 136°45'2612.5
2017-Dec-08 22:51N 33°47' E 136°20'5011.5
2017-Dec-08 18:34N 33°31' E 135°24'513.2
2017-Dec-08 18:13N 33°33' E 135°19'313.3
2017-Dec-08 18:00N 33°35' E 135°17'1513.8
2017-Dec-08 16:53N 33°47' E 135°05'513.6
2017-Dec-08 16:30N 33°51' E 135°02'713.7
2017-Dec-08 16:00N 33°58' E 134°60'713.6
2017-Dec-08 15:30N 34°05' E 134°59'713.2
2017-Dec-08 15:00N 34°11' E 134°59'713.9
2017-Dec-08 14:30N 34°18' E 134°59'612.7
2017-Dec-08 14:00N 34°24' E 135°02'713.6
2017-Dec-08 13:30N 34°28' E 135°09'713.4
2017-Dec-08 13:00N 34°32' E 135°15'612.8
2017-Dec-08 12:30N 34°36' E 135°22'3 6.9
2017-Dec-08 12:01N 34°35' E 135°26'0 0.3
2017-Dec-08 11:30N 34°35' E 135°26'0 0.0
2017-Dec-08 11:00N 34°35' E 135°26'0 0.0
2017-Dec-08 10:30N 34°35' E 135°26'0 0.0
2017-Dec-08 10:00N 34°35' E 135°26'0 0.0
2017-Dec-08 09:30N 34°35' E 135°26'0 0.0
2017-Dec-08 09:00N 34°35' E 135°26'0 0.0
2017-Dec-08 08:30N 34°35' E 135°26'0 0.0
2017-Dec-08 08:00N 34°35' E 135°26'0 0.0
2017-Dec-08 07:30N 34°35' E 135°26'0 0.0
2017-Dec-08 07:00N 34°35' E 135°26'0 0.0
2017-Dec-08 06:30N 34°35' E 135°26'0 0.0
2017-Dec-08 06:00N 34°35' E 135°26'0 0.0
2017-Dec-08 05:30N 34°35' E 135°26'0 0.0
2017-Dec-08 05:00N 34°35' E 135°26'0 0.0
2017-Dec-08 04:30N 34°35' E 135°26'0 0.0
2017-Dec-08 04:00N 34°35' E 135°26'0 0.0
2017-Dec-08 03:30N 34°35' E 135°26'0 0.6
2017-Dec-08 03:00N 34°35' E 135°25'2 4.1
2017-Dec-08 02:30N 34°36' E 135°24'1 2.6
2017-Dec-08 02:00N 34°36' E 135°23'0 0.0
2017-Dec-08 01:30N 34°36' E 135°23'0 0.1
2017-Dec-08 01:00N 34°36' E 135°22'0 0.0
2017-Dec-08 00:30N 34°36' E 135°22'0 0.0
2017-Dec-08 00:00N 34°36' E 135°22'0 0.0
2017-Dec-07 23:30N 34°36' E 135°22'0 0.0
2017-Dec-07 23:00N 34°36' E 135°22'0 0.0
2017-Dec-07 22:30N 34°36' E 135°22'0 0.0
2017-Dec-07 22:00N 34°36' E 135°22'0 0.1
2017-Dec-07 21:30N 34°36' E 135°22'0 0.1
2017-Dec-07 21:00N 34°36' E 135°22'0 0.1
2017-Dec-07 20:30N 34°36' E 135°22'0 0.0
2017-Dec-07 20:00N 34°36' E 135°22'0 0.0
2017-Dec-07 19:30N 34°36' E 135°22'0 0.1
2017-Dec-07 19:00N 34°36' E 135°22'0 0.0
2017-Dec-07 18:30N 34°36' E 135°22'0 0.1
2017-Dec-07 18:00N 34°36' E 135°22'0 0.0
2017-Dec-07 17:30N 34°36' E 135°22'0 0.0
2017-Dec-07 17:00N 34°36' E 135°22'0 0.0
2017-Dec-07 16:30N 34°36' E 135°22'0 0.0
2017-Dec-07 16:00N 34°36' E 135°22'0 0.0
2017-Dec-07 15:30N 34°36' E 135°22'0 0.0
2017-Dec-07 15:00N 34°36' E 135°22'0 0.0
2017-Dec-07 14:30N 34°36' E 135°22'0 0.1
2017-Dec-07 14:00N 34°36' E 135°22'0 0.1
2017-Dec-07 13:30N 34°36' E 135°22'0 0.1
2017-Dec-07 13:00N 34°36' E 135°22'0 0.0
2017-Dec-07 12:30N 34°36' E 135°22'0 0.0
2017-Dec-07 12:00N 34°36' E 135°22'0 0.0
2017-Dec-07 11:30N 34°36' E 135°22'0 0.0
2017-Dec-07 11:00N 34°36' E 135°22'0 0.0
2017-Dec-07 10:30N 34°36' E 135°22'0 0.0
2017-Dec-07 10:00N 34°36' E 135°22'0 0.0
2017-Dec-07 09:30N 34°36' E 135°22'  

Dump ship's entire track history